Time,TemperatureF,DewpointF,PressureIn,WindDirection,WindDirectionDegrees,WindSpeedMPH,WindSpeedGustMPH,Humidity,HourlyPrecipIn,Conditions,Clouds,dailyrainin,SoftwareType,DateUTC
2017-12-15 00:00:00,1.3,-4.5,29.99,West,271,0.0,0.0,76,0.00,CLR,,0.00,WeatherDisplay:10.37,2017-12-15 05:00:00,
2017-12-15 00:15:00,1.4,-4.4,29.99,WNW,283,0.0,0.0,76,0.00,CLR,,0.00,WeatherDisplay:10.37,2017-12-15 05:15:00,
2017-12-15 00:30:00,1.1,-4.4,29.99,WNW,283,0.0,0.0,77,0.00,CLR,,0.00,WeatherDisplay:10.37,2017-12-15 05:30:00,
2017-12-15 01:30:00,0.8,-4.5,30.00,West,276,0.0,0.0,78,0.00,CLR,,0.00,WeatherDisplay:10.37,2017-12-15 06:30:00,
2017-12-15 01:45:00,0.7,-4.3,30.01,West,265,0.0,0.0,79,0.00,CLR,,0.00,WeatherDisplay:10.37,2017-12-15 06:45:00,
2017-12-15 02:00:00,0.3,-4.4,30.01,West,259,0.0,0.0,80,0.00,CLR,,0.00,WeatherDisplay:10.37,2017-12-15 07:00:00,
2017-12-15 02:15:00,0.3,-4.4,30.01,WSW,256,0.0,0.0,80,0.00,CLR,,0.00,WeatherDisplay:10.37,2017-12-15 07:15:00,
2017-12-15 02:30:00,0.4,-4.1,30.02,West,259,0.0,0.0,81,0.00,CLR,,0.00,WeatherDisplay:10.37,2017-12-15 07:30:00,
2017-12-15 02:45:00,0.4,-3.8,30.02,WSW,249,0.0,0.0,82,0.00,CLR,,0.00,WeatherDisplay:10.37,2017-12-15 07:45:00,
2017-12-15 03:00:00,0.4,-3.8,30.02,West,261,0.0,0.0,82,0.00,CLR,,0.00,WeatherDisplay:10.37,2017-12-15 08:00:00,
2017-12-15 03:30:00,0.6,-3.3,30.03,WSW,246,0.0,0.0,83,0.00,CLR,,0.00,WeatherDisplay:10.37,2017-12-15 08:30:00,
2017-12-15 03:45:00,0.6,-3.6,30.03,WSW,250,0.0,0.0,82,0.00,CLR,,0.00,WeatherDisplay:10.37,2017-12-15 08:45:00,
2017-12-15 04:15:00,0.8,-2.7,30.03,WSW,245,0.0,0.0,85,0.00,CLR,,0.00,WeatherDisplay:10.37,2017-12-15 09:15:00,
2017-12-15 04:30:00,0.6,-2.8,30.03,WSW,241,0.0,0.0,85,0.00,CLR,,0.00,WeatherDisplay:10.37,2017-12-15 09:30:00,
2017-12-15 04:45:00,0.7,-2.7,30.03,WSW,242,0.0,0.0,85,0.00,CLR,,0.00,WeatherDisplay:10.37,2017-12-15 09:45:00,
2017-12-15 05:00:00,1.1,-2.4,30.03,WSW,237,0.0,0.0,85,0.00,CLR,,0.00,WeatherDisplay:10.37,2017-12-15 10:00:00,
2017-12-15 05:30:00,1.1,-2.1,30.02,WSW,239,0.0,0.0,86,0.00,CLR,,0.00,WeatherDisplay:10.37,2017-12-15 10:30:00,
2017-12-15 06:00:00,1.0,-2.7,30.01,WSW,242,0.0,0.0,84,0.00,CLR,,0.00,WeatherDisplay:10.37,2017-12-15 11:00:00,
2017-12-15 06:15:00,1.5,-2.2,30.01,West,268,0.0,0.0,84,0.00,CLR,,0.00,WeatherDisplay:10.37,2017-12-15 11:15:00,
2017-12-15 06:30:00,0.7,-3.0,30.01,WSW,247,0.0,0.0,84,0.00,CLR,,0.00,WeatherDisplay:10.37,2017-12-15 11:30:00,
2017-12-15 06:45:00,-0.2,-3.9,30.01,ENE,73,0.0,0.0,84,0.00,CLR,,0.00,WeatherDisplay:10.37,2017-12-15 11:45:00,
2017-12-15 07:00:00,-0.5,-3.6,30.01,ESE,116,0.0,0.0,86,0.00,CLR,,0.00,WeatherDisplay:10.37,2017-12-15 12:00:00,
2017-12-15 07:15:00,0.4,-2.8,30.02,SSW,202,0.0,0.0,86,0.00,CLR,,0.00,WeatherDisplay:10.37,2017-12-15 12:15:00,
2017-12-15 07:30:00,1.3,-2.4,30.02,WSW,251,0.0,0.0,84,0.00,CLR,,0.00,WeatherDisplay:10.37,2017-12-15 12:30:00,
2017-12-15 07:45:00,1.2,-2.8,30.03,SSE,158,0.0,0.0,83,0.00,CLR,,0.00,WeatherDisplay:10.37,2017-12-15 12:45:00,
2017-12-15 08:00:00,2.1,-1.8,30.03,SW,227,0.0,0.0,83,0.00,CLR,,0.00,WeatherDisplay:10.37,2017-12-15 13:00:00,
2017-12-15 08:15:00,2.9,-1.6,30.04,SW,221,0.0,0.0,81,0.00,CLR,,0.00,WeatherDisplay:10.37,2017-12-15 13:15:00,
2017-12-15 08:30:00,3.6,-1.2,30.04,WSW,245,0.0,0.0,80,0.00,CLR,,0.00,WeatherDisplay:10.37,2017-12-15 13:30:00,
2017-12-15 08:45:00,4.4,-0.9,30.04,WSW,243,0.0,0.0,78,0.00,CLR,,0.00,WeatherDisplay:10.37,2017-12-15 13:45:00,
2017-12-15 09:00:00,5.5,-0.4,30.05,WSW,240,0.0,0.0,76,0.00,CLR,,0.00,WeatherDisplay:10.37,2017-12-15 14:00:00,
2017-12-15 09:15:00,5.8,-0.7,30.05,WSW,244,0.0,0.0,74,0.00,CLR,,0.00,WeatherDisplay:10.37,2017-12-15 14:15:00,
2017-12-15 09:30:00,6.7,0.2,30.06,WSW,247,0.0,0.0,74,0.00,CLR,,0.00,WeatherDisplay:10.37,2017-12-15 14:30:00,
2017-12-15 09:45:00,8.4,1.2,30.05,SW,224,0.0,0.0,72,0.00,CLR,,0.00,WeatherDisplay:10.37,2017-12-15 14:45:00,
2017-12-15 10:00:00,9.6,1.5,30.05,WSW,247,0.0,0.0,69,0.00,CLR,,0.00,WeatherDisplay:10.37,2017-12-15 15:00:00,
2017-12-15 10:15:00,11.2,3.0,30.05,WSW,241,0.0,0.0,69,0.00,CLR,,0.00,WeatherDisplay:10.37,2017-12-15 15:15:00,
2017-12-15 10:30:00,12.4,2.9,30.05,WSW,246,0.0,0.0,65,0.00,CLR,,0.00,WeatherDisplay:10.37,2017-12-15 15:30:00,
2017-12-15 10:45:00,13.2,3.3,30.04,SW,235,0.0,0.0,64,0.00,CLR,,0.00,WeatherDisplay:10.37,2017-12-15 15:45:00,
2017-12-15 11:00:00,13.9,2.9,30.03,WSW,241,0.0,0.0,61,0.00,CLR,,0.00,WeatherDisplay:10.37,2017-12-15 16:00:00,
2017-12-15 11:15:00,14.5,3.1,30.02,WSW,244,0.0,0.0,60,0.00,CLR,,0.00,WeatherDisplay:10.37,2017-12-15 16:15:00,
2017-12-15 11:30:00,15.4,4.7,30.02,WSW,249,0.0,0.0,62,0.00,CLR,,0.00,WeatherDisplay:10.37,2017-12-15 16:30:00,
2017-12-15 11:45:00,15.8,4.7,30.01,SW,225,0.0,0.0,61,0.00,CLR,,0.00,WeatherDisplay:10.37,2017-12-15 16:45:00,
2017-12-15 12:00:00,16.8,5.7,30.00,WSW,253,0.0,0.0,61,0.00,CLR,,0.00,WeatherDisplay:10.37,2017-12-15 17:00:00,
2017-12-15 12:15:00,17.1,4.8,30.00,WSW,247,0.0,0.0,58,0.00,SCT,,0.00,WeatherDisplay:10.37,2017-12-15 17:15:00,
2017-12-15 12:30:00,17.2,5.3,29.99,WSW,256,0.0,0.0,59,0.00,SCT,,0.00,WeatherDisplay:10.37,2017-12-15 17:30:00,
2017-12-15 12:45:00,18.0,6.4,29.99,WSW,251,0.0,0.0,60,0.00,SCT,,0.00,WeatherDisplay:10.37,2017-12-15 17:45:00,
2017-12-15 13:00:00,18.9,6.5,29.98,WSW,256,0.0,0.0,58,0.00,SCT,,0.00,WeatherDisplay:10.37,2017-12-15 18:00:00,
2017-12-15 13:15:00,19.7,7.7,29.97,WSW,246,0.0,0.0,59,0.00,OVC,,0.00,WeatherDisplay:10.37,2017-12-15 18:15:00,
2017-12-15 13:30:00,18.8,6.9,29.96,SW,233,0.0,0.0,59,0.00,OVC,,0.00,WeatherDisplay:10.37,2017-12-15 18:30:00,
2017-12-15 13:45:00,18.2,7.0,29.97,WSW,249,0.0,0.0,61,0.00,OVC,,0.00,WeatherDisplay:10.37,2017-12-15 18:45:00,
2017-12-15 14:00:00,17.3,6.9,29.96,WSW,243,0.0,0.0,63,0.00,OVC,,0.00,WeatherDisplay:10.37,2017-12-15 19:00:00,
2017-12-15 14:15:00,17.2,6.8,29.96,WSW,239,0.0,0.0,63,0.00,CLR,,0.00,WeatherDisplay:10.37,2017-12-15 19:15:00,
2017-12-15 14:30:00,17.4,7.2,29.95,South,186,0.0,0.0,64,0.00,CLR,,0.00,WeatherDisplay:10.37,2017-12-15 19:30:00,
2017-12-15 14:45:00,16.7,7.0,29.95,SW,231,0.0,0.0,65,0.00,CLR,,0.00,WeatherDisplay:10.37,2017-12-15 19:45:00,
2017-12-15 15:00:00,16.2,7.2,29.95,WSW,249,0.0,0.0,67,0.00,CLR,,0.00,WeatherDisplay:10.37,2017-12-15 20:00:00,
2017-12-15 15:15:00,15.8,7.1,29.95,SW,229,0.0,0.0,68,0.00,BKN,,0.00,WeatherDisplay:10.37,2017-12-15 20:15:00,
2017-12-15 15:30:00,15.3,6.6,29.94,SW,227,0.0,0.0,68,0.00,BKN,,0.00,WeatherDisplay:10.37,2017-12-15 20:30:00,
2017-12-15 15:45:00,14.7,6.4,29.94,SW,231,0.0,0.0,69,0.00,BKN,,0.00,WeatherDisplay:10.37,2017-12-15 20:45:00,
2017-12-15 16:00:00,14.1,6.4,29.93,South,172,0.0,0.0,71,0.00,BKN,,0.00,WeatherDisplay:10.37,2017-12-15 21:00:00,
2017-12-15 16:15:00,13.8,5.5,29.92,SW,217,0.0,0.0,69,0.00,BKN,,0.00,WeatherDisplay:10.37,2017-12-15 21:15:00,
2017-12-15 16:30:00,13.3,6.0,29.92,SE,138,0.0,0.0,72,0.00,BKN,,0.00,WeatherDisplay:10.37,2017-12-15 21:30:00,
2017-12-15 16:45:00,13.2,6.1,29.92,ENE,74,0.0,0.0,73,0.00,BKN,,0.00,WeatherDisplay:10.37,2017-12-15 21:45:00,
2017-12-15 17:00:00,13.0,6.6,29.92,East,98,0.0,0.0,75,0.00,BKN,,0.00,WeatherDisplay:10.37,2017-12-15 22:00:00,
2017-12-15 17:30:00,12.4,6.6,29.91,ENE,76,0.0,0.0,77,0.00,BKN,,0.00,WeatherDisplay:10.37,2017-12-15 22:30:00,